Time;durP1;ratioP1;P1;durP2;ratioP2;P2;SDS_P1;SDS_P2;PMS_P1;PMS_P2;Temp;Humidity;BMP_temperature;BMP_pressure;BME280_temperature;BME280_humidity;BME280_pressure;Samples;Min_cycle;Max_cycle;Signal;HPM_P1;HPM_P2
2022/11/25 00:00:53;;;;;;;11.90;9.00;;;4.00;99.90;;;;;;4939459;29;20171;-86
2022/11/25 00:03:19;;;;;;;11.90;8.43;;;4.00;99.90;;;;;;4936749;29;20279;-87
2022/11/25 00:05:45;;;;;;;8.83;6.70;;;4.00;99.90;;;;;;4919512;29;20189;-88
2022/11/25 00:08:10;;;;;;;8.03;6.50;;;3.90;99.90;;;;;;4919584;29;20187;-88
2022/11/25 00:10:36;;;;;;;10.83;6.53;;;3.80;99.90;;;;;;4936426;29;20172;-89
2022/11/25 00:13:02;;;;;;;8.50;6.90;;;3.70;99.90;;;;;;4919506;29;20191;-88
2022/11/25 00:15:28;;;;;;;9.67;6.90;;;3.80;99.90;;;;;;4940103;29;20172;-87
2022/11/25 00:17:54;;;;;;;10.20;7.10;;;3.90;99.90;;;;;;4943241;29;20235;-88
2022/11/25 00:20:21;;;;;;;8.73;7.27;;;3.90;99.90;;;;;;4937247;29;20506;-88
2022/11/25 00:22:47;;;;;;;7.70;6.07;;;3.90;99.90;;;;;;4937032;29;20258;-87
2022/11/25 00:25:12;;;;;;;8.53;6.43;;;3.90;99.90;;;;;;4949428;28;20251;-86
2022/11/25 00:27:38;;;;;;;7.33;5.90;;;4.00;99.90;;;;;;4942436;29;20284;-87
2022/11/25 00:30:05;;;;;;;7.77;5.77;;;4.00;99.90;;;;;;4960504;29;20188;-88
2022/11/25 00:32:31;;;;;;;7.13;5.73;;;3.90;99.90;;;;;;4960523;29;20176;-88
2022/11/25 00:34:57;;;;;;;6.93;5.23;;;3.80;99.90;;;;;;4929947;29;20242;-89
2022/11/25 00:37:23;;;;;;;7.37;5.30;;;3.70;99.90;;;;;;4937599;29;20177;-88
2022/11/25 00:39:48;;;;;;;8.30;5.60;;;3.60;99.90;;;;;;4919998;29;20203;-88
2022/11/25 00:44:58;;;;;;;7.27;5.13;;;3.50;99.90;;;;;;4935940;29;20198;-88
2022/11/25 00:47:24;;;;;;;5.57;5.07;;;3.40;99.90;;;;;;4936138;29;20203;-88
2022/11/25 00:49:52;;;;;;;6.87;5.17;;;3.50;99.90;;;;;;4935709;29;20589;-88
2022/11/25 00:52:20;;;;;;;5.70;4.73;;;3.50;99.90;;;;;;4918852;29;20201;-89
2022/11/25 00:54:47;;;;;;;4.63;4.23;;;3.40;99.90;;;;;;4936342;29;20168;-88
2022/11/25 00:57:14;;;;;;;5.03;4.53;;;3.40;99.90;;;;;;4918642;29;20401;-88
2022/11/25 00:59:40;;;;;;;4.90;4.13;;;3.60;99.90;;;;;;4935729;29;20172;-88
2022/11/25 01:02:06;;;;;;;5.07;4.53;;;3.60;99.90;;;;;;4935845;29;20696;-88
2022/11/25 01:04:32;;;;;;;5.60;4.40;;;3.60;99.90;;;;;;4918560;29;20172;-88
2022/11/25 01:06:59;;;;;;;5.80;4.60;;;3.60;99.90;;;;;;4935690;29;20214;-86
2022/11/25 01:09:26;;;;;;;4.27;3.87;;;3.60;99.90;;;;;;4940020;29;20233;-86
2022/11/25 01:11:52;;;;;;;5.10;4.20;;;3.60;99.90;;;;;;4941834;29;20174;-86
2022/11/25 01:14:19;;;;;;;6.20;4.37;;;3.60;99.90;;;;;;4939693;29;20201;-88
2022/11/25 01:16:46;;;;;;;5.23;4.33;;;3.60;99.90;;;;;;4939255;29;20168;-89
2022/11/25 01:19:13;;;;;;;6.87;4.37;;;3.50;99.90;;;;;;4939470;29;20530;-88
2022/11/25 01:21:39;;;;;;;4.77;4.27;;;3.60;99.90;;;;;;4921854;29;20180;-88
2022/11/25 01:24:10;;;;;;;6.13;4.07;;;3.40;99.90;;;;;;4938872;28;20283;-85
2022/11/25 01:26:36;;;;;;;3.70;3.40;;;3.40;99.90;;;;;;4938857;29;20197;-88
2022/11/25 01:29:09;;;;;;;4.60;3.27;;;3.40;99.90;;;;;;4938869;29;20175;-87
2022/11/25 01:31:35;;;;;;;3.07;2.77;;;3.20;99.90;;;;;;4939230;29;20171;-88
2022/11/25 01:34:07;;;;;;;3.47;3.23;;;3.20;99.90;;;;;;4943203;29;20209;-88
2022/11/25 01:36:33;;;;;;;3.73;3.10;;;3.20;99.90;;;;;;4920419;29;20180;-87
2022/11/25 01:38:59;;;;;;;3.60;3.30;;;3.20;99.90;;;;;;4911490;29;20233;-85
2022/11/25 01:41:31;;;;;;;3.13;2.83;;;3.10;99.90;;;;;;4930420;29;20185;-87
2022/11/25 01:44:09;;;;;;;6.00;3.23;;;3.10;99.90;;;;;;4921778;29;20181;-87
2022/11/25 01:47:13;;;;;;;3.37;2.97;;;3.20;99.90;;;;;;4920569;29;20237;-84
2022/11/25 01:49:51;;;;;;;7.00;3.20;;;3.20;99.90;;;;;;4912175;29;20199;-87
2022/11/25 01:52:34;;;;;;;3.60;3.30;;;3.30;99.90;;;;;;4919864;29;20252;-87
2022/11/25 01:55:09;;;;;;;3.67;2.83;;;3.40;99.90;;;;;;4921252;29;20157;-88
2022/11/25 01:57:43;;;;;;;2.83;2.63;;;3.40;99.90;;;;;;4930145;29;20192;-87
2022/11/25 02:00:10;;;;;;;3.50;3.20;;;3.50;99.90;;;;;;4938367;29;20667;-86
2022/11/25 02:02:36;;;;;;;3.60;3.30;;;3.40;99.90;;;;;;4935887;29;20551;-89
2022/11/25 02:05:07;;;;;;;3.43;3.10;;;3.40;99.90;;;;;;4920458;29;20176;-88
2022/11/25 02:07:42;;;;;;;4.00;3.60;;;3.40;99.90;;;;;;4919379;29;20207;-87
2022/11/25 02:10:13;;;;;;;4.90;3.00;;;3.20;99.90;;;;;;4919487;29;20178;-86
2022/11/25 02:12:42;;;;;;;3.70;3.37;;;3.30;99.90;;;;;;4919094;29;20618;-85
2022/11/25 02:15:08;;;;;;;4.03;3.37;;;3.30;99.90;;;;;;4919430;29;20717;-85
2022/11/25 02:17:34;;;;;;;4.37;3.17;;;3.30;99.90;;;;;;4930039;29;20225;-88
2022/11/25 02:20:13;;;;;;;3.43;3.13;;;3.30;99.90;;;;;;4957217;29;20177;-86
2022/11/25 02:22:59;;;;;;;3.53;3.17;;;3.30;99.90;;;;;;4951040;29;20177;-87
2022/11/25 02:25:33;;;;;;;3.93;3.23;;;3.40;99.90;;;;;;4938615;29;20230;-86
2022/11/25 02:28:12;;;;;;;3.60;3.30;;;3.30;99.90;;;;;;4920548;29;20211;-87
2022/11/25 02:30:38;;;;;;;3.20;2.90;;;3.30;99.90;;;;;;4937544;29;20173;-85
2022/11/25 02:33:04;;;;;;;3.17;2.87;;;3.30;99.90;;;;;;4937412;29;20191;-87
2022/11/25 02:35:34;;;;;;;2.37;2.27;;;3.20;99.90;;;;;;4937465;29;20212;-87
2022/11/25 02:38:21;;;;;;;2.93;2.73;;;3.30;99.90;;;;;;4920081;29;20184;-86
2022/11/25 02:41:05;;;;;;;2.87;2.63;;;3.30;99.90;;;;;;4937330;29;20240;-87
2022/11/25 02:43:31;;;;;;;3.20;2.90;;;3.30;99.90;;;;;;4920183;29;20202;-86
2022/11/25 02:46:01;;;;;;;3.40;3.10;;;3.20;99.90;;;;;;4937227;29;20647;-87
2022/11/25 02:48:29;;;;;;;2.47;2.27;;;3.20;99.90;;;;;;4937003;29;20204;-87
2022/11/25 02:50:54;;;;;;;3.47;3.00;;;3.00;99.90;;;;;;4936717;29;20170;-86
2022/11/25 02:53:20;;;;;;;2.80;2.60;;;2.80;99.90;;;;;;4937363;29;20208;-86
2022/11/25 02:55:46;;;;;;;2.93;2.50;;;3.00;99.90;;;;;;4936969;29;20228;-88
2022/11/25 02:58:13;;;;;;;4.07;2.50;;;3.00;99.90;;;;;;4919527;29;20549;-85
2022/11/25 03:00:39;;;;;;;2.80;2.60;;;2.90;99.90;;;;;;4936726;29;20199;-86
2022/11/25 03:03:05;;;;;;;2.63;2.43;;;2.90;99.90;;;;;;4937118;29;20180;-88
2022/11/25 03:05:31;;;;;;;2.67;2.47;;;3.00;99.90;;;;;;4936706;29;20262;-86
2022/11/25 03:07:57;;;;;;;3.63;2.83;;;3.10;99.90;;;;;;4936765;29;20264;-87
2022/11/25 03:10:23;;;;;;;2.60;2.40;;;3.10;99.90;;;;;;4936573;29;20188;-86
2022/11/25 03:12:49;;;;;;;2.73;2.50;;;3.10;99.90;;;;;;4936600;29;20180;-87
2022/11/25 03:15:17;;;;;;;2.73;2.13;;;3.10;99.90;;;;;;4919688;29;20679;-87
2022/11/25 03:17:42;;;;;;;4.10;2.57;;;3.00;99.90;;;;;;4936540;29;20259;-85
2022/11/25 03:20:09;;;;;;;2.37;2.20;;;3.00;99.90;;;;;;4919732;29;20196;-88
2022/11/25 03:22:35;;;;;;;2.73;2.53;;;3.00;99.90;;;;;;4933492;29;20213;-87
2022/11/25 03:25:01;;;;;;;2.67;2.47;;;3.00;99.90;;;;;;4951409;29;20232;-87
2022/11/25 03:27:26;;;;;;;4.07;2.77;;;3.00;99.90;;;;;;4955722;29;20559;-85
2022/11/25 03:29:52;;;;;;;2.00;1.90;;;2.90;99.90;;;;;;4955177;28;20223;-87
2022/11/25 03:32:18;;;;;;;2.87;2.20;;;2.80;99.90;;;;;;4955822;28;20227;-85
2022/11/25 03:34:44;;;;;;;2.17;2.07;;;2.80;99.90;;;;;;4958545;28;20183;-87
2022/11/25 03:37:10;;;;;;;3.80;2.80;;;2.70;99.90;;;;;;4971709;29;20183;-87
2022/11/25 03:39:35;;;;;;;2.40;2.20;;;2.70;99.90;;;;;;4976620;29;20196;-86
2022/11/25 03:42:01;;;;;;;2.13;1.93;;;2.60;99.90;;;;;;4948913;29;20176;-87
2022/11/25 03:44:27;;;;;;;2.30;2.10;;;2.60;99.90;;;;;;4938738;29;20632;-86
2022/11/25 03:46:53;;;;;;;2.47;2.27;;;2.70;99.90;;;;;;4936177;29;20207;-85
2022/11/25 03:49:20;;;;;;;3.40;2.37;;;2.70;99.90;;;;;;4935862;29;20181;-86
2022/11/25 03:51:47;;;;;;;2.20;2.10;;;2.70;99.90;;;;;;4935989;29;20251;-85
2022/11/25 03:54:12;;;;;;;1.90;1.80;;;2.70;99.90;;;;;;4935906;29;20244;-85
2022/11/25 03:56:39;;;;;;;2.43;2.07;;;2.70;99.90;;;;;;4934503;29;20181;-87
2022/11/25 03:59:04;;;;;;;2.07;1.97;;;2.70;99.90;;;;;;4936055;29;20270;-87
2022/11/25 04:01:30;;;;;;;3.33;2.17;;;2.60;99.90;;;;;;4934738;29;20267;-88
2022/11/25 04:03:56;;;;;;;3.17;2.17;;;2.60;99.90;;;;;;4935136;29;20283;-88
2022/11/25 04:06:22;;;;;;;1.97;1.87;;;2.60;99.90;;;;;;4946552;29;20199;-87
2022/11/25 04:08:49;;;;;;;3.33;2.60;;;2.50;99.90;;;;;;4952209;29;20229;-86
2022/11/25 04:11:16;;;;;;;2.40;2.30;;;2.40;99.90;;;;;;4954580;28;20211;-87
2022/11/25 04:13:42;;;;;;;2.90;2.70;;;2.30;99.90;;;;;;4957825;29;20201;-85
2022/11/25 04:16:21;;;;;;;3.30;3.10;;;2.30;99.90;;;;;;4942227;29;20187;-86
2022/11/25 04:18:47;;;;;;;3.07;2.57;;;2.40;99.90;;;;;;4939963;29;20182;-87
2022/11/25 04:21:13;;;;;;;2.53;2.23;;;2.50;99.90;;;;;;4935938;29;20652;-86
2022/11/25 04:23:38;;;;;;;1.97;1.87;;;2.50;99.90;;;;;;4940180;29;20641;-85
2022/11/25 04:26:04;;;;;;;1.80;1.80;;;2.60;99.90;;;;;;4954673;29;20222;-87
2022/11/25 04:28:30;;;;;;;2.30;2.10;;;2.60;99.90;;;;;;4954745;29;20206;-87
2022/11/25 04:30:55;;;;;;;2.07;1.97;;;2.60;99.90;;;;;;4954403;29;20175;-87
2022/11/25 04:33:21;;;;;;;2.00;1.90;;;2.60;99.90;;;;;;4954777;29;20184;-88
2022/11/25 04:35:47;;;;;;;2.07;1.97;;;2.40;99.90;;;;;;4954132;29;20180;-87
2022/11/25 04:38:13;;;;;;;2.37;1.80;;;2.40;99.90;;;;;;4954703;29;20368;-87
2022/11/25 04:40:38;;;;;;;1.80;1.70;;;2.40;99.90;;;;;;4954425;29;20188;-86
2022/11/25 04:43:04;;;;;;;2.33;1.90;;;2.30;99.90;;;;;;4957099;28;20179;-86
2022/11/25 04:45:30;;;;;;;1.60;1.50;;;2.20;99.90;;;;;;4958736;29;20175;-88
2022/11/25 04:47:56;;;;;;;1.90;1.80;;;2.10;99.90;;;;;;4957695;29;20745;-86
2022/11/25 04:50:22;;;;;;;3.93;2.23;;;2.10;99.90;;;;;;4960022;29;20171;-88
2022/11/25 04:52:48;;;;;;;1.80;1.70;;;2.10;99.90;;;;;;4960822;29;20252;-88
2022/11/25 04:55:14;;;;;;;1.50;1.50;;;2.10;99.90;;;;;;4958793;29;20262;-88
2022/11/25 04:57:40;;;;;;;1.80;1.70;;;2.10;99.90;;;;;;4958670;29;20687;-87
2022/11/25 05:00:07;;;;;;;2.60;1.80;;;2.20;99.90;;;;;;4958472;29;20207;-88
2022/11/25 05:02:32;;;;;;;1.93;1.83;;;2.20;99.90;;;;;;4958854;29;20681;-86
2022/11/25 05:04:58;;;;;;;3.27;1.83;;;2.30;99.90;;;;;;4959044;29;20178;-87
2022/11/25 05:07:26;;;;;;;1.63;1.57;;;2.20;99.90;;;;;;4970911;29;20215;-86
2022/11/25 05:09:52;;;;;;;1.80;1.70;;;2.30;99.90;;;;;;4972925;28;20187;-88
2022/11/25 05:12:22;;;;;;;2.10;2.00;;;2.40;99.90;;;;;;4981664;28;20175;-88
2022/11/25 05:14:48;;;;;;;1.73;1.63;;;2.30;99.90;;;;;;4977966;29;20238;-88
2022/11/25 05:17:16;;;;;;;5.57;4.57;;;2.40;99.90;;;;;;4960702;29;20212;-87
2022/11/25 05:19:43;;;;;;;3.77;3.37;;;2.40;99.90;;;;;;4947563;29;20257;-87
2022/11/25 05:22:12;;;;;;;4.43;3.23;;;2.40;99.90;;;;;;4958630;29;20179;-87
2022/11/25 05:24:38;;;;;;;3.07;2.83;;;2.30;99.90;;;;;;4957981;28;20225;-87
2022/11/25 05:27:05;;;;;;;4.27;3.20;;;2.30;99.90;;;;;;4961764;29;20203;-88
2022/11/25 05:29:31;;;;;;;6.57;4.53;;;2.30;99.90;;;;;;4958566;29;20179;-87
2022/11/25 05:31:56;;;;;;;6.27;5.17;;;2.20;99.90;;;;;;4940514;29;20179;-88
2022/11/25 05:34:22;;;;;;;10.37;5.77;;;2.10;99.90;;;;;;4940506;29;20659;-88
2022/11/25 05:36:48;;;;;;;12.07;7.17;;;2.20;99.90;;;;;;4957841;29;20175;-87
2022/11/25 05:39:14;;;;;;;11.30;7.30;;;2.10;99.90;;;;;;4957839;29;20167;-88
2022/11/25 05:41:40;;;;;;;8.93;7.57;;;2.10;99.90;;;;;;4957645;29;20650;-88
2022/11/25 05:44:06;;;;;;;14.13;8.30;;;2.10;99.90;;;;;;4956928;29;20183;-85
2022/11/25 05:46:32;;;;;;;14.80;8.63;;;2.10;99.90;;;;;;4939598;29;20290;-87
2022/11/25 05:49:00;;;;;;;10.00;8.37;;;2.10;99.90;;;;;;4957455;29;20270;-87
2022/11/25 05:51:27;;;;;;;11.57;8.23;;;2.10;99.90;;;;;;4958317;29;20686;-88
2022/11/25 05:53:53;;;;;;;13.10;9.33;;;2.10;99.90;;;;;;4939745;29;20631;-88
2022/11/25 05:56:19;;;;;;;13.77;8.80;;;2.10;99.90;;;;;;4957373;29;20178;-88
2022/11/25 05:58:54;;;;;;;13.43;8.97;;;2.10;99.90;;;;;;4957881;29;20241;-87
2022/11/25 06:01:33;;;;;;;;;;;;;;;;;;;;;
2022/11/25 06:04:01;;;;;;;15.40;9.47;;;2.00;99.90;;;;;;4971317;29;20213;-87
2022/11/25 06:06:27;;;;;;;16.90;9.47;;;2.00;99.90;;;;;;4959858;29;20253;-86
2022/11/25 06:08:53;;;;;;;16.40;8.80;;;2.00;99.90;;;;;;4963458;29;20195;-88
2022/11/25 06:11:18;;;;;;;11.53;8.10;;;2.00;99.90;;;;;;4957754;29;20185;-86
2022/11/25 06:13:45;;;;;;;12.83;9.20;;;2.10;99.90;;;;;;4939570;29;20180;-84
2022/11/25 06:16:16;;;;;;;12.57;8.50;;;2.00;99.90;;;;;;4957718;29;20184;-85
2022/11/25 06:18:42;;;;;;;12.50;8.47;;;2.00;99.90;;;;;;4957115;29;20170;-88
2022/11/25 06:21:09;;;;;;;13.10;8.60;;;2.00;99.90;;;;;;4956903;29;20183;-88
2022/11/25 06:23:36;;;;;;;13.93;8.47;;;2.10;99.90;;;;;;4956504;29;20280;-88
2022/11/25 06:26:22;;;;;;;15.83;8.33;;;2.20;99.90;;;;;;4957133;29;20182;-87
2022/11/25 06:28:55;;;;;;;14.60;7.87;;;2.20;99.90;;;;;;4957423;29;20175;-85
2022/11/25 06:31:45;;;;;;;11.90;7.63;;;2.20;99.90;;;;;;4958323;29;20196;-86
2022/11/25 06:34:16;;;;;;;9.83;7.63;;;2.20;99.90;;;;;;4938635;29;20190;-88
2022/11/25 06:36:42;;;;;;;17.07;10.03;;;2.10;99.90;;;;;;4957266;29;20182;-88
2022/11/25 06:39:08;;;;;;;12.17;7.37;;;2.10;99.90;;;;;;4957645;29;20182;-89
2022/11/25 06:41:34;;;;;;;10.50;7.87;;;2.00;99.90;;;;;;4939721;29;20191;-86
2022/11/25 06:44:00;;;;;;;11.33;7.13;;;2.00;99.90;;;;;;4957829;29;20186;-86
2022/11/25 06:46:26;;;;;;;8.40;7.00;;;2.00;99.90;;;;;;4960368;29;20229;-86
2022/11/25 06:48:52;;;;;;;10.40;7.53;;;2.00;99.90;;;;;;4973411;29;20207;-86
2022/11/25 06:51:18;;;;;;;8.90;6.90;;;2.00;99.90;;;;;;4979041;29;20198;-85
2022/11/25 06:53:44;;;;;;;8.00;6.70;;;2.10;99.90;;;;;;4943407;29;20191;-85
2022/11/25 06:56:14;;;;;;;11.20;7.23;;;2.00;99.90;;;;;;4958050;29;20183;-87
2022/11/25 06:58:42;;;;;;;10.63;7.03;;;2.10;99.90;;;;;;4957316;29;20169;-89
2022/11/25 07:01:12;;;;;;;12.77;6.87;;;2.20;99.90;;;;;;4957901;29;20190;-89
2022/11/25 07:03:38;;;;;;;9.33;6.67;;;2.20;99.90;;;;;;4945305;29;20241;-88
2022/11/25 07:06:04;;;;;;;9.60;6.23;;;2.20;99.90;;;;;;4960866;28;20630;-88
2022/11/25 07:08:30;;;;;;;9.70;6.83;;;2.30;99.90;;;;;;4957277;29;20190;-87
2022/11/25 07:11:05;;;;;;;11.03;6.63;;;2.20;99.90;;;;;;4943754;29;20179;-87
2022/11/25 07:13:31;;;;;;;10.47;7.43;;;2.20;99.90;;;;;;4961138;29;20214;-88
2022/11/25 07:16:01;;;;;;;8.73;6.60;;;2.20;99.90;;;;;;4956633;29;20182;-88
2022/11/25 07:18:33;;;;;;;12.27;6.97;;;2.30;99.90;;;;;;4957156;29;20182;-87
2022/11/25 07:21:13;;;;;;;9.47;7.23;;;2.20;99.90;;;;;;4956980;29;20174;-88
2022/11/25 07:24:12;;;;;;;;;;;;;;;;;;;;;
2022/11/25 07:26:40;;;;;;;9.40;6.73;;;2.40;99.90;;;;;;4934544;29;20230;-86
2022/11/25 07:29:08;;;;;;;10.67;6.50;;;2.50;99.90;;;;;;4918305;29;20286;-86
2022/11/25 07:31:37;;;;;;;7.90;6.23;;;2.60;99.90;;;;;;4937002;29;20305;-86
2022/11/25 07:34:19;;;;;;;7.37;6.13;;;2.70;99.90;;;;;;4937639;29;20215;-88
2022/11/25 07:36:47;;;;;;;8.37;5.83;;;2.80;99.90;;;;;;4919838;29;20723;-86
2022/11/25 07:39:30;;;;;;;;;;;;;;;;;;;;;
2022/11/25 07:41:56;;;;;;;6.80;6.10;;;2.90;99.90;;;;;;4937483;29;20193;-86
2022/11/25 07:44:22;;;;;;;9.10;5.27;;;3.00;99.90;;;;;;4937828;29;20276;-88
2022/11/25 07:46:49;;;;;;;10.17;5.70;;;3.00;99.90;;;;;;4937784;29;20239;-87
2022/11/25 07:49:38;;;;;;;8.03;5.90;;;3.00;99.90;;;;;;4920740;29;20191;-84
2022/11/25 07:52:04;;;;;;;8.17;5.60;;;3.10;99.90;;;;;;4920433;29;20274;-87
2022/11/25 07:54:31;;;;;;;7.60;5.97;;;3.20;99.90;;;;;;4938526;29;20208;-87
2022/11/25 07:56:57;;;;;;;9.40;5.70;;;3.30;99.90;;;;;;4947978;29;20186;-88
2022/11/25 07:59:23;;;;;;;9.30;6.13;;;3.50;99.90;;;;;;4956209;29;20173;-85
2022/11/25 08:01:55;;;;;;;7.53;6.73;;;3.60;99.90;;;;;;4948249;29;20203;-85
2022/11/25 08:04:21;;;;;;;6.77;6.07;;;3.80;99.90;;;;;;5157076;23;20249;-88
2022/11/25 08:06:49;;;;;;;8.67;6.20;;;3.80;99.90;;;;;;4937739;29;20262;-85
2022/11/25 08:09:19;;;;;;;7.20;5.97;;;4.00;99.90;;;;;;4937961;29;20183;-85
2022/11/25 08:11:46;;;;;;;8.07;6.67;;;4.10;99.90;;;;;;4937465;29;20176;-84
2022/11/25 08:14:12;;;;;;;10.37;7.23;;;4.10;99.90;;;;;;4938680;29;20259;-84
2022/11/25 08:16:38;;;;;;;11.27;6.60;;;4.20;99.90;;;;;;4938886;29;20164;-85
2022/11/25 08:19:07;;;;;;;7.87;6.70;;;4.20;99.90;;;;;;4939207;29;20728;-86
2022/11/25 08:21:33;;;;;;;7.73;6.93;;;4.20;99.90;;;;;;4940593;29;20538;-84
2022/11/25 08:23:58;;;;;;;8.07;6.30;;;4.30;99.90;;;;;;4945812;29;20172;-87
2022/11/25 08:26:31;;;;;;;7.87;6.20;;;4.50;99.90;;;;;;4958695;29;20226;-88
2022/11/25 08:28:58;;;;;;;7.67;6.17;;;4.60;99.90;;;;;;4953727;29;20178;-84
2022/11/25 08:31:28;;;;;;;11.47;6.17;;;4.80;99.90;;;;;;4946342;29;20190;-85
2022/11/25 08:33:54;;;;;;;5.73;5.23;;;4.90;99.90;;;;;;4944145;29;20247;-85
2022/11/25 08:36:21;;;;;;;7.70;5.87;;;5.00;99.90;;;;;;4947673;29;20182;-84
2022/11/25 08:38:49;;;;;;;6.47;5.77;;;5.10;99.90;;;;;;4941435;29;20176;-84
2022/11/25 08:41:21;;;;;;;8.33;5.93;;;5.20;99.90;;;;;;4938778;29;20173;-88
2022/11/25 08:43:46;;;;;;;5.93;5.43;;;5.10;99.90;;;;;;4937681;29;20252;-88
2022/11/25 08:46:18;;;;;;;10.07;5.53;;;5.20;99.90;;;;;;4936167;29;20208;-86
2022/11/25 08:48:44;;;;;;;7.20;5.70;;;5.30;99.90;;;;;;4937652;29;20246;-88
2022/11/25 08:51:16;;;;;;;6.30;5.70;;;5.40;99.90;;;;;;4937608;29;20174;-87
2022/11/25 08:53:44;;;;;;;5.93;5.10;;;5.50;99.90;;;;;;4920719;29;20185;-88
2022/11/25 08:56:10;;;;;;;6.73;5.70;;;5.60;99.90;;;;;;4956090;29;20152;-87
2022/11/25 08:58:37;;;;;;;5.90;5.40;;;5.70;99.90;;;;;;4941035;29;20195;-88
2022/11/25 09:01:04;;;;;;;7.37;5.50;;;5.70;99.90;;;;;;4931693;29;20184;-89
2022/11/25 09:03:35;;;;;;;6.17;5.57;;;5.70;99.90;;;;;;4937980;28;20618;-88
2022/11/25 09:06:02;;;;;;;6.67;5.70;;;5.70;99.90;;;;;;4919937;29;20180;-88
2022/11/25 09:08:29;;;;;;;5.90;5.37;;;5.80;99.90;;;;;;4920416;29;20188;-88
2022/11/25 09:10:54;;;;;;;6.93;5.37;;;5.80;99.90;;;;;;4937048;29;20260;-87
2022/11/25 09:13:20;;;;;;;8.33;5.83;;;5.80;99.90;;;;;;4937337;29;20633;-88
2022/11/25 09:15:46;;;;;;;6.63;5.83;;;5.80;99.90;;;;;;4939283;29;20509;-88
2022/11/25 09:18:13;;;;;;;6.67;5.07;;;5.90;99.90;;;;;;4949190;29;20171;-88
2022/11/25 09:20:39;;;;;;;6.17;5.50;;;6.00;99.90;;;;;;4940925;29;20660;-89
2022/11/25 09:23:14;;;;;;;10.70;5.60;;;6.10;99.90;;;;;;4938161;29;20174;-86
2022/11/25 09:26:01;;;;;;;6.37;5.60;;;6.10;99.90;;;;;;4937417;29;20165;-86
2022/11/25 09:28:27;;;;;;;9.10;5.37;;;6.20;99.90;;;;;;4937895;29;20177;-86
2022/11/25 09:30:54;;;;;;;8.57;5.13;;;6.20;99.90;;;;;;4941080;29;20174;-85
2022/11/25 09:33:21;;;;;;;5.30;4.80;;;6.20;99.90;;;;;;4940312;29;20177;-88
2022/11/25 09:35:47;;;;;;;4.57;4.23;;;6.30;99.90;;;;;;4940790;29;20180;-89
2022/11/25 09:38:13;;;;;;;6.07;4.70;;;6.30;99.90;;;;;;4940350;29;20182;-87
2022/11/25 09:40:44;;;;;;;6.20;5.40;;;6.30;99.90;;;;;;4940808;29;20216;-86
2022/11/25 09:46:58;;;;;;;5.80;5.17;;;6.20;99.90;;;;;;4954298;29;20254;-87
2022/11/25 09:49:30;;;;;;;5.50;4.97;;;6.20;99.90;;;;;;4963140;29;20337;-86
2022/11/25 09:52:18;;;;;;;5.83;5.33;;;6.10;99.90;;;;;;4930564;29;20614;-88
2022/11/25 09:54:51;;;;;;;9.80;5.10;;;6.20;99.90;;;;;;4932491;29;20215;-87
2022/11/25 09:57:31;;;;;;;5.47;4.90;;;6.20;99.90;;;;;;4962471;29;20177;-88
2022/11/25 10:00:15;;;;;;;8.00;4.87;;;6.40;99.90;;;;;;4948149;29;20212;-89
2022/11/25 10:03:03;;;;;;;7.47;5.27;;;6.40;99.90;;;;;;4940310;29;20163;-87
2022/11/25 10:05:41;;;;;;;6.60;4.60;;;6.40;99.90;;;;;;4939321;28;20220;-88
2022/11/25 10:08:21;;;;;;;6.60;4.83;;;6.50;99.90;;;;;;4922573;29;20202;-87
2022/11/25 10:10:52;;;;;;;6.63;4.83;;;6.40;99.90;;;;;;4939823;29;20174;-88
2022/11/25 10:13:31;;;;;;;5.60;5.10;;;6.40;99.90;;;;;;4939452;29;20165;-88
2022/11/25 10:16:00;;;;;;;10.00;5.57;;;6.50;99.90;;;;;;4939756;29;20165;-88
2022/11/25 10:18:39;;;;;;;6.00;5.17;;;6.50;99.90;;;;;;4940059;29;20601;-89
2022/11/25 10:21:05;;;;;;;7.67;4.73;;;6.50;99.90;;;;;;4940744;29;20668;-87
2022/11/25 10:23:35;;;;;;;6.07;4.90;;;6.50;99.90;;;;;;4942239;29;20175;-87
2022/11/25 10:26:14;;;;;;;4.80;4.40;;;6.60;99.90;;;;;;4941281;29;20183;-85
2022/11/25 10:28:55;;;;;;;6.63;4.80;;;6.70;99.90;;;;;;4922942;29;20334;-87
2022/11/25 10:31:31;;;;;;;8.33;4.70;;;6.70;99.90;;;;;;4922876;29;20168;-86
2022/11/25 10:34:01;;;;;;;8.13;5.33;;;6.70;99.90;;;;;;4940097;29;20195;-87
2022/11/25 10:36:31;;;;;;;8.00;5.00;;;6.80;99.90;;;;;;4945259;29;20179;-87
2022/11/25 10:39:02;;;;;;;6.17;5.00;;;6.90;99.90;;;;;;4940297;29;20532;-85
2022/11/25 10:41:33;;;;;;;6.73;5.73;;;6.90;99.90;;;;;;4939617;29;20172;-89
2022/11/25 10:43:59;;;;;;;7.00;5.00;;;7.20;99.90;;;;;;4945918;29;20160;-86
2022/11/25 10:46:50;;;;;;;11.60;5.13;;;7.20;99.90;;;;;;4954339;29;20293;-89
2022/11/25 10:49:29;;;;;;;7.90;5.13;;;7.20;99.90;;;;;;4941548;29;20177;-88
2022/11/25 10:51:56;;;;;;;9.37;5.20;;;7.20;99.90;;;;;;4922476;29;20186;-88
2022/11/25 10:54:24;;;;;;;5.70;5.20;;;7.20;99.90;;;;;;4939233;29;20195;-89
2022/11/25 10:56:53;;;;;;;8.40;5.87;;;7.20;99.90;;;;;;4938621;29;20229;-88
2022/11/25 10:59:48;;;;;;;5.80;5.20;;;7.30;99.90;;;;;;4939244;29;20179;-88
2022/11/25 11:02:37;;;;;;;7.27;4.80;;;7.30;99.90;;;;;;4861764;29;20205;-88
2022/11/25 11:05:09;;;;;;;6.97;5.67;;;7.30;99.90;;;;;;4861292;29;20248;-89
2022/11/25 11:07:41;;;;;;;7.27;5.67;;;7.20;99.90;;;;;;4863059;29;20227;-88
2022/11/25 11:10:23;;;;;;;6.70;4.63;;;7.30;99.90;;;;;;4861839;29;20194;-88
2022/11/25 11:12:49;;;;;;;8.10;4.67;;;7.30;99.90;;;;;;4861989;29;20225;-88
2022/11/25 11:15:23;;;;;;;7.40;4.73;;;7.30;99.90;;;;;;4861738;29;20206;-88
2022/11/25 11:17:50;;;;;;;9.53;4.93;;;7.30;99.90;;;;;;4864323;29;20649;-87
2022/11/25 11:20:33;;;;;;;5.93;4.63;;;7.30;99.90;;;;;;4862146;29;20537;-86
2022/11/25 11:23:11;;;;;;;7.63;5.00;;;7.40;99.90;;;;;;4862756;29;20168;-87
2022/11/25 11:25:42;;;;;;;5.97;4.83;;;7.40;99.90;;;;;;4861902;29;20200;-88
2022/11/25 11:28:43;;;;;;;4.57;4.10;;;7.50;99.90;;;;;;4861913;29;20216;-87
2022/11/25 11:31:25;;;;;;;5.93;4.37;;;7.50;99.90;;;;;;4882802;29;20166;-88
2022/11/25 11:33:57;;;;;;;4.57;3.70;;;7.50;99.90;;;;;;4878181;29;20244;-89
2022/11/25 11:36:28;;;;;;;4.10;3.70;;;7.50;99.90;;;;;;4879160;29;20248;-87
2022/11/25 11:39:18;;;;;;;3.70;3.40;;;7.60;99.90;;;;;;4919561;29;20188;-88
2022/11/25 11:41:57;;;;;;;4.10;3.43;;;7.60;99.90;;;;;;4939406;29;20342;-88
2022/11/25 11:44:32;;;;;;;3.67;3.20;;;7.60;99.90;;;;;;4939778;29;20636;-88
2022/11/25 11:47:24;;;;;;;4.07;3.67;;;7.60;99.90;;;;;;4941597;29;20560;-88
2022/11/25 11:50:03;;;;;;;3.03;2.83;;;7.60;99.90;;;;;;4866597;29;20195;-88
2022/11/25 11:52:48;;;;;;;3.83;3.13;;;7.60;99.90;;;;;;4853673;29;20186;-87
2022/11/25 11:55:35;;;;;;;2.90;2.70;;;7.60;99.90;;;;;;4877277;29;20216;-88
2022/11/25 11:58:22;;;;;;;3.50;3.30;;;7.60;99.90;;;;;;4868542;29;20167;-89
2022/11/25 12:00:58;;;;;;;4.20;3.20;;;7.80;99.90;;;;;;4874510;29;20191;-88
2022/11/25 12:03:31;;;;;;;3.80;3.53;;;7.70;99.90;;;;;;4874542;29;20203;-88
2022/11/25 12:06:03;;;;;;;3.67;3.37;;;7.90;99.90;;;;;;4873814;29;20255;-88
2022/11/25 12:08:42;;;;;;;3.80;3.50;;;8.00;99.90;;;;;;4896226;29;20172;-88
2022/11/25 12:11:36;;;;;;;3.30;2.73;;;7.90;99.90;;;;;;4884390;29;20186;-88
2022/11/25 12:14:13;;;;;;;5.80;3.00;;;7.90;99.90;;;;;;4893868;29;20200;-86
2022/11/25 12:16:45;;;;;;;2.70;2.50;;;7.90;99.90;;;;;;4889462;29;20182;-88
2022/11/25 12:19:22;;;;;;;2.97;2.70;;;7.80;99.90;;;;;;4894190;29;20181;-86
2022/11/25 12:21:56;;;;;;;10.60;6.20;;;7.80;99.90;;;;;;4890279;29;20168;-88
2022/11/25 12:24:28;;;;;;;9.27;5.90;;;7.90;99.90;;;;;;4869161;29;20189;-87
2022/11/25 12:26:59;;;;;;;8.80;7.07;;;7.90;99.90;;;;;;4938196;29;20285;-88
2022/11/25 12:29:46;;;;;;;8.77;5.07;;;7.90;99.90;;;;;;4951205;29;20192;-87
2022/11/25 12:32:16;;;;;;;4.13;3.83;;;7.80;99.90;;;;;;4968516;29;20176;-88
2022/11/25 12:35:01;;;;;;;2.90;2.70;;;7.90;99.90;;;;;;4971970;29;20198;-85
2022/11/25 12:37:44;;;;;;;3.70;2.33;;;7.80;99.90;;;;;;4961704;28;20205;-87
2022/11/25 12:40:29;;;;;;;6.93;5.73;;;7.90;99.90;;;;;;4976062;29;20635;-87
2022/11/25 12:43:09;;;;;;;7.53;3.37;;;7.80;99.90;;;;;;4954473;29;20188;-87
2022/11/25 12:45:44;;;;;;;6.23;4.30;;;7.80;99.90;;;;;;4954596;29;20176;-87
2022/11/25 12:48:11;;;;;;;4.43;2.73;;;8.00;99.90;;;;;;4967202;29;20289;-88
2022/11/25 12:51:10;;;;;;;2.10;2.00;;;7.90;99.90;;;;;;4964212;29;20179;-85
2022/11/25 12:53:53;;;;;;;2.23;2.03;;;7.90;99.90;;;;;;4971191;29;20178;-87
2022/11/25 12:56:31;;;;;;;1.80;1.70;;;7.90;99.90;;;;;;4974905;29;20164;-87
2022/11/25 13:01:30;;;;;;;3.30;1.50;;;7.90;99.90;;;;;;4950379;29;20236;-87
2022/11/25 13:04:02;;;;;;;1.37;1.37;;;7.90;99.90;;;;;;4949958;29;20180;-88
2022/11/25 13:06:46;;;;;;;1.97;1.83;;;7.90;99.90;;;;;;4960893;29;20212;-86
2022/11/25 13:09:25;;;;;;;1.27;1.27;;;7.80;99.90;;;;;;4961511;29;20192;-84
2022/11/25 13:12:19;;;;;;;1.83;1.63;;;7.80;99.90;;;;;;4945730;29;20174;-85
2022/11/25 13:14:48;;;;;;;1.50;1.40;;;7.90;99.90;;;;;;4945399;29;20262;-87
2022/11/25 13:17:14;;;;;;;2.00;1.90;;;7.80;99.90;;;;;;4942705;29;20174;-84
2022/11/25 13:19:40;;;;;;;7.20;1.60;;;7.80;99.90;;;;;;4942868;29;20175;-88
2022/11/25 13:22:28;;;;;;;2.00;1.90;;;7.90;99.90;;;;;;4951782;29;20219;-87
2022/11/25 13:24:58;;;;;;;1.60;1.50;;;7.90;99.90;;;;;;4956567;29;20182;-87